• Join FlightAware (Why Join?)
  • Login
  • US Flag 
11:16PM EDT


 

Airport Tracker/Info


-or-


 

Live Flight TrackerFlight Track Log ✈ N465TP ✈ 30-Jan-2014 ✈ KCOD - KBIL

Flight Track Log - Related Links

Times and Time Zones

All times are in EST time to prevent confusion due to time zone crossing. See the N465TP flight status page for this flight to view local times or setup timezone preferences in your user account.

Time Position Orientation Groundspeed Altitude Reporting Facility
EST Latitude Longitude Course Direction KTS MPH feet Rate Location/Type
09:47AM 44.5394 -109.0028 19° North 137 158 6,300  Level Salt Lake Center
09:48AM 44.5817 -108.9922 10° North 153 176 7,600 1,320 Climbing Salt Lake Center
09:49AM 44.7786 -108.9143 North  Level FlightAware Approximate
09:49AM 44.6256 -108.9797 11° North 155 178 9,000  Level Salt Lake Center
09:50AM 44.8235 -108.9053 North  Level FlightAware Approximate
09:50AM 44.6717 -108.9669 11° North 161 185 10,600  Level Salt Lake Center
09:51AM 44.8679 -108.8929 16° North  Level FlightAware Approximate
09:51AM 44.7181 -108.9533 12° North 166 191 12,200  Level Salt Lake Center
09:52AM 44.9115 -108.8754 16° North  Level FlightAware Approximate
09:52AM 44.7633 -108.9403 12° North 167 192 13,900  Level Salt Lake Center
09:53AM 44.9547 -108.8560 19° North  Level FlightAware Approximate
09:53AM 44.8086 -108.9258 13° North 167 192 14,800  Level Salt Lake Center
09:54AM 44.8642 -108.9094 12° North 187 215 14,900  Climbing Salt Lake Center
09:55AM 44.9236 -108.8914 12° North 210 242 14,800  Descending Salt Lake Center
09:56AM 44.9808 -108.8750 11° North 210 242 14,900  Climbing Salt Lake Center
09:57AM 45.0508 -108.8547 12° North 212 244 14,800  Descending Salt Lake Center
09:58AM 45.1044 -108.8381 12° North 209 241 14,900  Climbing Salt Lake Center
09:59AM 45.1647 -108.8200 12° North 207 238 14,900 -180 Level Salt Lake Center
10:00AM 45.2219 -108.8064 10° North 211 243 14,600 -540 Descending Salt Lake Center
10:01AM 45.2778 -108.8056 North 204 235 13,900 -720 Descending Salt Lake Center
10:02AM 45.3367 -108.8003 North 199 229 13,200 -720 Descending Salt Lake Center
10:03AM 45.3914 -108.7969 North 200 230 12,500 -720 Descending Salt Lake Center
10:04AM 45.4478 -108.7950 North 205 236 11,800 -840 Descending Salt Lake Center
10:05AM 45.5122 -108.7947 360° North 215 247 10,900 -900 Descending Salt Lake Center
10:06AM 45.5711 -108.8039 354° North 215 247 10,000 -960 Descending Salt Lake Center
10:08AM 45.6256 -108.8150 352° North 202 232 9,000 -1,080 Descending Salt Lake Center
10:09AM 45.6831 -108.8169 359° North 194 223 7,900 -1,020 Descending Salt Lake Center
10:10AM 45.7350 -108.8297 350° North 191 220 7,000 -900 Descending Salt Lake Center
10:11AM 45.7825 -108.8353 355° North 173 199 6,100 -540 Descending Salt Lake Center
10:12AM 45.8319 -108.8183 13° North 173 199 6,000 -180 Descending Salt Lake Center
10:13AM 45.8667 -108.7786 39° Northeast 166 191 5,800 -180 Descending Salt Lake Center
10:14AM 45.8569 -108.7136 102° East 169 194 5,700 -360 Descending Salt Lake Center
10:15AM 45.8397 -108.6522 112° Southeast 156 180 5,100 -720 Descending Salt Lake Center
10:16AM 45.8264 -108.6044 112° Southeast 134 154 4,300 -780 Descending Salt Lake Center
10:17AM 45.8136 -108.5569 111° Southeast 122 140 3,600 -720 Descending Salt Lake Center